Time;durP1;ratioP1;P1;durP2;ratioP2;P2;SDS_P1;SDS_P2;PMS_P1;PMS_P2;Temp;Humidity;BMP_temperature;BMP_pressure;BME280_temperature;BME280_humidity;BME280_pressure;Samples;Min_cycle;Max_cycle;Signal;HPM_P1;HPM_P2
2021/12/29 00:01:53;;;;;;;149.40;31.75;;;6.20;99.90;;;;;;4998445;28;20062;-71
2021/12/29 00:04:19;;;;;;;116.85;27.80;;;6.20;99.90;;;;;;4997995;28;20112;-70
2021/12/29 00:06:44;;;;;;;146.80;29.98;;;6.20;99.90;;;;;;5015189;28;20042;-70
2021/12/29 00:09:10;;;;;;;117.43;26.17;;;6.20;99.90;;;;;;5009605;28;20046;-71
2021/12/29 00:11:38;;;;;;;174.98;30.15;;;6.20;99.90;;;;;;4995809;28;20050;-71
2021/12/29 00:14:05;;;;;;;99.47;24.35;;;6.30;99.90;;;;;;4995636;28;20064;-70
2021/12/29 00:16:34;;;;;;;184.45;28.17;;;6.30;99.90;;;;;;4995948;28;20046;-70
2021/12/29 00:19:09;;;;;;;171.18;29.25;;;6.30;99.90;;;;;;4995419;28;20108;-71
2021/12/29 00:21:36;;;;;;;63.85;21.35;;;6.30;99.90;;;;;;4978304;28;20054;-71
2021/12/29 00:24:05;;;;;;;126.55;25.05;;;6.30;99.90;;;;;;4995339;28;20074;-70
2021/12/29 00:26:32;;;;;;;191.85;27.73;;;6.30;99.90;;;;;;4995795;28;20054;-70
2021/12/29 00:29:01;;;;;;;118.47;25.02;;;6.30;99.90;;;;;;4978387;28;20038;-69
2021/12/29 00:31:28;;;;;;;150.13;27.58;;;6.20;99.90;;;;;;4978247;28;20054;-70
2021/12/29 00:33:53;;;;;;;91.75;22.55;;;6.20;99.90;;;;;;4978780;28;20053;-72
2021/12/29 00:36:19;;;;;;;235.77;30.60;;;6.20;99.90;;;;;;4995200;28;20050;-71
2021/12/29 00:38:45;;;;;;;118.78;24.45;;;6.20;99.90;;;;;;4963093;28;20446;-70
2021/12/29 00:41:11;;;;;;;84.70;21.45;;;6.20;99.90;;;;;;5014680;28;20369;-72
2021/12/29 00:43:37;;;;;;;89.63;21.40;;;6.20;99.90;;;;;;5015355;28;20487;-69
2021/12/29 00:46:03;;;;;;;77.30;20.65;;;6.20;99.90;;;;;;4997251;28;20082;-69
2021/12/29 00:48:35;;;;;;;97.10;22.65;;;6.20;99.90;;;;;;4997306;28;20084;-71
2021/12/29 00:51:02;;;;;;;100.25;21.45;;;6.20;99.90;;;;;;5014839;28;20092;-69
2021/12/29 00:53:28;;;;;;;94.15;20.48;;;6.20;99.90;;;;;;4997640;28;20050;-73
2021/12/29 00:55:53;;;;;;;89.80;20.70;;;6.20;99.90;;;;;;5001103;28;20057;-69
2021/12/29 00:58:19;;;;;;;62.92;17.92;;;6.20;99.90;;;;;;5018582;28;20056;-71
2021/12/29 01:00:45;;;;;;;67.40;18.23;;;6.20;99.90;;;;;;5018741;28;20168;-70
2021/12/29 01:03:11;;;;;;;111.88;21.73;;;6.20;99.90;;;;;;5000989;28;20100;-69
2021/12/29 01:05:38;;;;;;;109.63;20.80;;;6.20;99.90;;;;;;5001886;28;20046;-70
2021/12/29 01:08:04;;;;;;;91.55;19.27;;;6.20;99.90;;;;;;5001311;28;20144;-70
2021/12/29 01:10:30;;;;;;;69.60;18.52;;;6.20;99.90;;;;;;4985644;28;20146;-70
2021/12/29 01:13:01;;;;;;;98.53;19.98;;;6.20;99.90;;;;;;4981813;28;20129;-70
2021/12/29 01:15:33;;;;;;;74.95;18.48;;;6.20;99.90;;;;;;4999026;28;20073;-70
2021/12/29 01:18:01;;;;;;;72.80;17.58;;;6.30;99.90;;;;;;4999108;28;20133;-72
2021/12/29 01:20:28;;;;;;;110.72;20.45;;;6.20;99.90;;;;;;4978118;28;20459;-70
2021/12/29 01:22:56;;;;;;;95.22;19.75;;;6.30;99.90;;;;;;4994169;28;20058;-72
2021/12/29 01:25:22;;;;;;;106.45;19.65;;;6.30;99.90;;;;;;4972946;28;20086;-71
2021/12/29 01:27:49;;;;;;;134.20;21.42;;;6.30;99.90;;;;;;4977662;28;20446;-69
2021/12/29 01:30:14;;;;;;;110.05;20.60;;;6.30;99.90;;;;;;4978161;28;20455;-72
2021/12/29 01:32:41;;;;;;;171.32;22.80;;;6.30;99.90;;;;;;4962214;28;20059;-70
2021/12/29 01:35:09;;;;;;;130.07;21.10;;;6.30;99.90;;;;;;4978860;28;20046;-70
2021/12/29 01:37:35;;;;;;;158.80;22.35;;;6.30;99.90;;;;;;4978930;28;20051;-71
2021/12/29 01:40:02;;;;;;;135.45;22.58;;;6.30;99.90;;;;;;4988701;28;20470;-71
2021/12/29 01:42:28;;;;;;;226.65;25.55;;;6.30;99.90;;;;;;4997058;28;20046;-69
2021/12/29 01:44:53;;;;;;;152.75;21.63;;;6.40;99.90;;;;;;4997290;28;20097;-70
2021/12/29 01:47:31;;;;;;;314.17;28.10;;;6.30;99.90;;;;;;4997359;28;20058;-71
2021/12/29 01:50:00;;;;;;;133.15;21.58;;;6.30;99.90;;;;;;4998778;28;20042;-71
2021/12/29 01:52:30;;;;;;;197.43;24.92;;;6.30;99.90;;;;;;4997356;28;20058;-70
2021/12/29 01:54:56;;;;;;;217.98;26.45;;;6.30;99.90;;;;;;4996904;28;20046;-69
2021/12/29 01:57:22;;;;;;;124.85;21.50;;;6.30;99.90;;;;;;4997123;28;20054;-70
2021/12/29 01:59:48;;;;;;;169.00;23.38;;;6.40;99.90;;;;;;4996956;28;20125;-71
2021/12/29 02:02:14;;;;;;;205.05;24.83;;;6.40;99.90;;;;;;4997191;28;20111;-72
2021/12/29 02:04:44;;;;;;;219.45;25.20;;;6.40;99.90;;;;;;4997693;28;20061;-70
2021/12/29 02:07:10;;;;;;;162.20;23.52;;;6.40;99.90;;;;;;4997174;28;20046;-70
2021/12/29 02:09:36;;;;;;;184.70;24.40;;;6.40;99.90;;;;;;4987165;28;20043;-70
2021/12/29 02:12:03;;;;;;;177.25;23.88;;;6.40;99.90;;;;;;4961667;28;20043;-72
2021/12/29 02:14:29;;;;;;;149.75;23.27;;;6.40;99.90;;;;;;4978088;28;20046;-69
2021/12/29 02:16:55;;;;;;;190.57;25.88;;;6.40;99.90;;;;;;4928311;28;20552;-71
2021/12/29 02:19:22;;;;;;;188.13;25.20;;;6.40;99.90;;;;;;4977985;28;20112;-70
2021/12/29 02:22:06;;;;;;;221.50;27.30;;;6.40;99.90;;;;;;4978298;28;20461;-70
2021/12/29 02:24:39;;;;;;;138.98;23.35;;;6.50;99.90;;;;;;4961849;28;20051;-71
2021/12/29 02:27:07;;;;;;;171.77;23.95;;;6.50;99.90;;;;;;5006009;28;20060;-69
2021/12/29 02:29:33;;;;;;;168.95;24.48;;;6.50;99.90;;;;;;5016079;28;20046;-71
2021/12/29 02:32:00;;;;;;;182.25;25.02;;;6.50;99.90;;;;;;5017223;28;20183;-69
2021/12/29 02:34:25;;;;;;;223.73;25.35;;;6.50;99.90;;;;;;4999446;28;20053;-70
2021/12/29 02:36:51;;;;;;;198.15;25.42;;;6.60;99.90;;;;;;5016849;28;20053;-69
2021/12/29 02:39:20;;;;;;;216.82;25.58;;;6.60;99.90;;;;;;5016634;28;20096;-71
2021/12/29 02:41:51;;;;;;;206.93;25.42;;;6.60;99.90;;;;;;4999441;28;20133;-70
2021/12/29 02:44:25;;;;;;;146.90;21.65;;;6.60;99.90;;;;;;5017132;28;20054;-71
2021/12/29 02:46:52;;;;;;;172.02;23.38;;;6.60;99.90;;;;;;5016989;28;20071;-71
2021/12/29 02:49:18;;;;;;;168.20;23.27;;;6.60;99.90;;;;;;4999335;28;20097;-70
2021/12/29 02:51:44;;;;;;;131.05;21.38;;;6.60;99.90;;;;;;4999601;28;20049;-70
2021/12/29 02:54:10;;;;;;;109.88;19.50;;;6.60;99.90;;;;;;4999418;28;20130;-70
2021/12/29 02:56:35;;;;;;;124.68;19.33;;;6.60;99.90;;;;;;4999205;28;20054;-70
2021/12/29 02:59:02;;;;;;;95.80;17.63;;;6.70;99.90;;;;;;5008764;28;20505;-69
2021/12/29 03:01:28;;;;;;;92.82;18.20;;;6.70;99.90;;;;;;5016460;28;20042;-69
2021/12/29 03:03:58;;;;;;;109.53;17.40;;;6.70;99.90;;;;;;5016205;28;20096;-70
2021/12/29 03:06:24;;;;;;;85.38;16.90;;;6.70;99.90;;;;;;5016493;28;20130;-72
2021/12/29 03:08:51;;;;;;;121.47;19.05;;;6.70;99.90;;;;;;5016863;28;20117;-70
2021/12/29 03:11:16;;;;;;;92.70;16.65;;;6.70;99.90;;;;;;4998931;28;20058;-70
2021/12/29 03:13:42;;;;;;;94.75;16.88;;;6.80;99.90;;;;;;4999306;28;20045;-71
2021/12/29 03:16:09;;;;;;;101.55;17.23;;;6.80;99.90;;;;;;4998907;28;20458;-70
2021/12/29 03:18:35;;;;;;;119.47;17.52;;;6.80;99.90;;;;;;5015729;28;20046;-71
2021/12/29 03:21:00;;;;;;;70.22;15.63;;;6.80;99.90;;;;;;5016107;28;20373;-70
2021/12/29 03:23:26;;;;;;;82.22;16.08;;;6.80;99.90;;;;;;5015966;28;20054;-72
2021/12/29 03:25:52;;;;;;;101.93;16.33;;;6.80;99.90;;;;;;4998671;28;20046;-69
2021/12/29 03:28:20;;;;;;;80.18;15.73;;;6.90;99.90;;;;;;5015706;28;20120;-72
2021/12/29 03:30:50;;;;;;;109.97;17.13;;;6.80;99.90;;;;;;5015994;28;20046;-70
2021/12/29 03:33:16;;;;;;;105.93;17.33;;;6.80;99.90;;;;;;4998479;28;20064;-70
2021/12/29 03:35:48;;;;;;;102.32;17.63;;;6.90;99.90;;;;;;5015528;28;20077;-70
2021/12/29 03:38:20;;;;;;;111.75;18.83;;;6.80;99.90;;;;;;4998692;28;20045;-71
2021/12/29 03:40:46;;;;;;;114.45;18.52;;;6.90;99.90;;;;;;5015812;28;20046;-70
2021/12/29 03:43:12;;;;;;;139.05;20.67;;;6.90;99.90;;;;;;4998332;28;20358;-70
2021/12/29 03:45:39;;;;;;;131.25;20.27;;;6.90;99.90;;;;;;5015363;28;20056;-69
2021/12/29 03:48:07;;;;;;;153.57;22.05;;;6.90;99.90;;;;;;4998161;28;20041;-71
2021/12/29 03:50:33;;;;;;;123.13;21.17;;;6.90;99.90;;;;;;5015557;28;20042;-70
2021/12/29 03:52:59;;;;;;;141.00;22.35;;;7.00;99.90;;;;;;5015624;28;20041;-70
2021/12/29 03:55:25;;;;;;;167.70;24.70;;;7.00;99.90;;;;;;4998168;28;20096;-70
2021/12/29 03:57:51;;;;;;;120.85;22.27;;;7.00;99.90;;;;;;4998332;28;20064;-70
2021/12/29 04:00:18;;;;;;;190.27;25.80;;;7.00;99.90;;;;;;5008058;28;20053;-72
2021/12/29 04:02:44;;;;;;;183.93;25.80;;;7.00;99.90;;;;;;5015856;28;20345;-71
2021/12/29 04:05:14;;;;;;;136.65;25.48;;;7.00;99.90;;;;;;5015525;28;20041;-71
2021/12/29 04:07:39;;;;;;;210.13;29.00;;;7.00;99.90;;;;;;5015587;28;20049;-70
2021/12/29 04:10:06;;;;;;;192.82;29.33;;;7.00;99.90;;;;;;4998213;28;20050;-71
2021/12/29 04:12:32;;;;;;;128.52;25.95;;;7.00;99.90;;;;;;5015295;28;20050;-69
2021/12/29 04:14:57;;;;;;;145.52;27.92;;;7.00;99.90;;;;;;5015041;28;20377;-70
2021/12/29 04:17:29;;;;;;;171.95;30.40;;;7.00;99.90;;;;;;4998127;28;20046;-70
2021/12/29 04:22:40;;;;;;;213.75;32.78;;;7.00;99.90;;;;;;5015324;28;20405;-71
2021/12/29 04:25:06;;;;;;;212.32;32.63;;;7.00;99.90;;;;;;5015361;28;20046;-71
2021/12/29 04:27:32;;;;;;;197.30;32.42;;;7.00;99.90;;;;;;5015020;28;20042;-72
2021/12/29 04:29:57;;;;;;;243.85;32.67;;;7.10;99.90;;;;;;5016535;28;20123;-70
2021/12/29 04:32:23;;;;;;;145.35;31.20;;;7.10;99.90;;;;;;5019466;28;20370;-71
2021/12/29 04:34:48;;;;;;;155.50;28.63;;;7.10;99.90;;;;;;5019026;28;20469;-70
2021/12/29 04:37:14;;;;;;;144.55;29.02;;;7.10;99.90;;;;;;5002379;28;20046;-70
2021/12/29 04:39:40;;;;;;;113.70;29.02;;;7.10;99.90;;;;;;5001949;28;20069;-70
2021/12/29 04:42:05;;;;;;;136.55;29.13;;;7.10;99.90;;;;;;5001734;28;20061;-69
2021/12/29 04:44:31;;;;;;;168.00;29.35;;;7.10;99.90;;;;;;5019679;28;20437;-69
2021/12/29 04:46:58;;;;;;;175.43;30.05;;;7.20;99.90;;;;;;5002165;28;20045;-69
2021/12/29 04:49:28;;;;;;;147.02;29.90;;;7.20;99.90;;;;;;5002287;28;20343;-70
2021/12/29 04:52:02;;;;;;;181.95;31.98;;;7.20;99.90;;;;;;5001932;28;20046;-70
2021/12/29 04:54:29;;;;;;;145.43;30.40;;;7.10;99.90;;;;;;5018735;28;20054;-71
2021/12/29 04:56:55;;;;;;;171.15;29.13;;;7.20;99.90;;;;;;5002202;28;20184;-70
2021/12/29 04:59:22;;;;;;;185.50;30.35;;;7.20;99.90;;;;;;4991841;28;20122;-69
2021/12/29 05:01:48;;;;;;;130.07;28.73;;;7.10;99.90;;;;;;4997954;28;20042;-69
2021/12/29 05:04:20;;;;;;;178.88;29.02;;;7.10;99.90;;;;;;5007626;28;20056;-70
2021/12/29 05:09:30;;;;;;;124.05;27.27;;;7.20;99.90;;;;;;4984403;28;20053;-69
2021/12/29 05:11:59;;;;;;;165.30;30.05;;;7.20;99.90;;;;;;5001687;28;20374;-71
2021/12/29 05:14:24;;;;;;;135.70;29.35;;;7.20;99.90;;;;;;5018738;28;20100;-70
2021/12/29 05:16:50;;;;;;;146.60;28.40;;;7.20;99.90;;;;;;5001436;28;20516;-71
2021/12/29 05:19:15;;;;;;;123.03;29.45;;;7.20;99.90;;;;;;5000936;28;20046;-71
2021/12/29 05:21:42;;;;;;;139.73;31.73;;;7.20;99.90;;;;;;5017659;28;20473;-71
2021/12/29 05:24:08;;;;;;;121.97;29.92;;;7.30;99.90;;;;;;5018121;28;20422;-71
2021/12/29 05:26:35;;;;;;;127.38;30.05;;;7.20;99.90;;;;;;5001249;28;20484;-71
2021/12/29 05:29:01;;;;;;;112.90;28.00;;;7.30;99.90;;;;;;4996590;28;20054;-70
2021/12/29 05:31:26;;;;;;;142.13;31.20;;;7.30;99.90;;;;;;5008129;28;20061;-70
2021/12/29 05:33:52;;;;;;;160.88;32.70;;;7.30;99.90;;;;;;4997759;28;20058;-69
2021/12/29 05:36:18;;;;;;;162.15;31.75;;;7.30;99.90;;;;;;4984949;28;20088;-70
2021/12/29 05:38:43;;;;;;;148.18;31.38;;;7.30;99.90;;;;;;5017939;28;20422;-70
2021/12/29 05:41:09;;;;;;;103.00;28.60;;;7.20;99.90;;;;;;4999443;28;20073;-70
2021/12/29 05:43:35;;;;;;;124.63;31.13;;;7.30;99.90;;;;;;5000602;28;20116;-70
2021/12/29 05:46:00;;;;;;;150.88;32.08;;;7.30;99.90;;;;;;5017620;28;20132;-70
2021/12/29 05:48:26;;;;;;;142.68;30.40;;;7.30;99.90;;;;;;5000405;28;20057;-71
2021/12/29 05:50:51;;;;;;;130.40;31.52;;;7.30;99.90;;;;;;5017785;28;20210;-69
2021/12/29 05:53:17;;;;;;;139.07;32.65;;;7.30;99.90;;;;;;5000671;28;20129;-70
2021/12/29 05:55:43;;;;;;;135.32;31.85;;;7.30;99.90;;;;;;5000506;28;20046;-74
2021/12/29 05:58:10;;;;;;;127.57;32.75;;;7.30;99.90;;;;;;5015819;28;20077;-70
2021/12/29 06:00:38;;;;;;;150.70;33.63;;;7.30;99.90;;;;;;4997905;28;20192;-72
2021/12/29 06:03:03;;;;;;;124.90;31.50;;;7.30;99.90;;;;;;4997994;28;20054;-71
2021/12/29 06:05:29;;;;;;;128.40;31.45;;;7.30;99.90;;;;;;4980483;28;20046;-70
2021/12/29 06:07:55;;;;;;;174.40;34.13;;;7.30;99.90;;;;;;4980544;28;20085;-71
2021/12/29 06:10:20;;;;;;;122.68;30.02;;;7.30;99.90;;;;;;4980886;28;20057;-69
2021/12/29 06:12:46;;;;;;;105.20;29.55;;;7.30;99.90;;;;;;4997780;28;20034;-70
2021/12/29 06:15:12;;;;;;;184.25;33.85;;;7.30;99.90;;;;;;4980511;28;20129;-71
2021/12/29 06:17:39;;;;;;;144.45;31.52;;;7.30;99.90;;;;;;4980409;28;20401;-70
2021/12/29 06:20:07;;;;;;;102.40;28.23;;;7.30;99.90;;;;;;4997290;28;20069;-70
2021/12/29 06:22:33;;;;;;;132.25;30.92;;;7.30;99.90;;;;;;4997495;28;20054;-69
2021/12/29 06:24:59;;;;;;;120.53;29.67;;;7.30;99.90;;;;;;4997428;28;20356;-70
2021/12/29 06:27:24;;;;;;;111.75;28.48;;;7.30;99.90;;;;;;4997565;28;20077;-69
2021/12/29 06:29:51;;;;;;;129.48;30.00;;;7.30;99.90;;;;;;4998186;28;20054;-70
2021/12/29 06:32:17;;;;;;;116.35;29.45;;;7.30;99.90;;;;;;5011784;28;20366;-69
2021/12/29 06:34:43;;;;;;;106.80;28.05;;;7.30;99.90;;;;;;5016266;28;20124;-70
2021/12/29 06:37:09;;;;;;;128.13;27.13;;;7.30;99.90;;;;;;5017004;28;20410;-72
2021/12/29 06:39:39;;;;;;;97.07;27.08;;;7.30;99.90;;;;;;5000119;28;20104;-71
2021/12/29 06:42:05;;;;;;;111.68;26.33;;;7.30;99.90;;;;;;5011394;28;20093;-71
2021/12/29 06:44:31;;;;;;;117.38;27.88;;;7.30;99.90;;;;;;5016980;28;20061;-69
2021/12/29 06:46:57;;;;;;;101.22;26.52;;;7.30;99.90;;;;;;5005842;28;20058;-70
2021/12/29 06:49:22;;;;;;;136.85;28.60;;;7.30;99.90;;;;;;5005896;28;20052;-70
2021/12/29 06:51:49;;;;;;;129.25;27.75;;;7.30;99.90;;;;;;4995996;28;20053;-71
2021/12/29 06:54:15;;;;;;;145.93;26.15;;;7.30;99.90;;;;;;5011620;28;20057;-72
2021/12/29 06:56:41;;;;;;;123.53;26.42;;;7.30;99.90;;;;;;4999235;28;20041;-69
2021/12/29 06:59:06;;;;;;;137.98;27.55;;;7.40;99.90;;;;;;4999206;28;20054;-68
2021/12/29 07:01:32;;;;;;;112.47;25.80;;;7.30;99.90;;;;;;5016246;28;20034;-69
2021/12/29 07:03:58;;;;;;;146.38;25.92;;;7.40;99.90;;;;;;4999282;28;20528;-71
2021/12/29 07:06:24;;;;;;;122.72;25.83;;;7.40;99.90;;;;;;4999777;28;20060;-71
2021/12/29 07:08:49;;;;;;;149.23;26.75;;;7.30;99.90;;;;;;4999219;28;20105;-70
2021/12/29 07:11:15;;;;;;;114.00;24.63;;;7.30;99.90;;;;;;4983078;28;20053;-70
2021/12/29 07:13:42;;;;;;;129.95;25.45;;;7.40;99.90;;;;;;5016184;28;20488;-73
2021/12/29 07:16:07;;;;;;;123.50;26.90;;;7.30;99.90;;;;;;4999040;28;20046;-71
2021/12/29 07:18:33;;;;;;;130.48;24.67;;;7.40;99.90;;;;;;4998989;28;20064;-70
2021/12/29 07:20:58;;;;;;;139.13;25.52;;;7.40;99.90;;;;;;4993585;28;20104;-73
2021/12/29 07:23:24;;;;;;;144.48;25.70;;;7.40;99.90;;;;;;4988167;28;20134;-72
2021/12/29 07:25:50;;;;;;;151.88;24.80;;;7.40;99.90;;;;;;5011508;28;20470;-70
2021/12/29 07:28:15;;;;;;;134.13;24.75;;;7.40;99.90;;;;;;4996392;28;20085;-70
2021/12/29 07:30:41;;;;;;;113.68;23.77;;;7.40;99.90;;;;;;5012623;28;20104;-70
2021/12/29 07:33:07;;;;;;;135.73;25.63;;;7.40;99.90;;;;;;4999365;28;20057;-71
2021/12/29 07:35:33;;;;;;;126.53;24.63;;;7.40;99.90;;;;;;4999003;28;20085;-70
2021/12/29 07:37:58;;;;;;;151.23;25.80;;;7.40;99.90;;;;;;4998580;28;20081;-69
2021/12/29 07:40:24;;;;;;;135.38;25.40;;;7.40;99.90;;;;;;4998436;28;20361;-71
2021/12/29 07:42:49;;;;;;;164.95;25.75;;;7.40;99.90;;;;;;4994347;28;20506;-72
2021/12/29 07:45:15;;;;;;;135.82;26.08;;;7.40;99.90;;;;;;5013566;28;20042;-69
2021/12/29 07:47:47;;;;;;;106.60;24.52;;;7.40;99.90;;;;;;5010356;28;20457;-70
2021/12/29 07:50:17;;;;;;;116.40;24.80;;;7.40;99.90;;;;;;4995921;28;20100;-71
2021/12/29 07:52:47;;;;;;;118.72;25.48;;;7.40;99.90;;;;;;4974802;28;20049;-69
2021/12/29 07:55:19;;;;;;;124.45;24.92;;;7.40;99.90;;;;;;5015483;28;20335;-68
2021/12/29 07:57:46;;;;;;;118.97;23.67;;;7.40;99.90;;;;;;5015567;28;20054;-69
2021/12/29 08:00:13;;;;;;;162.35;25.77;;;7.40;99.90;;;;;;4981740;28;20121;-68
2021/12/29 08:02:39;;;;;;;106.47;22.27;;;7.40;99.90;;;;;;5015548;28;20053;-69
2021/12/29 08:05:06;;;;;;;175.50;27.23;;;7.40;99.90;;;;;;5008948;28;20096;-69
2021/12/29 08:07:32;;;;;;;108.38;22.52;;;7.40;99.90;;;;;;4988551;28;20466;-69
2021/12/29 08:09:58;;;;;;;117.45;22.90;;;7.50;99.90;;;;;;5009893;28;20042;-68
2021/12/29 08:12:23;;;;;;;88.43;20.30;;;7.50;99.90;;;;;;4985446;28;20053;-69
2021/12/29 08:14:51;;;;;;;93.72;20.77;;;7.40;99.90;;;;;;5010796;28;20450;-68
2021/12/29 08:17:16;;;;;;;98.47;21.70;;;7.40;99.90;;;;;;4995807;28;20077;-67
2021/12/29 08:19:43;;;;;;;86.18;20.70;;;7.40;99.90;;;;;;4978233;28;20484;-69
2021/12/29 08:22:09;;;;;;;85.38;19.58;;;7.60;99.90;;;;;;4996247;28;20054;-68
2021/12/29 08:24:34;;;;;;;94.35;20.40;;;7.50;99.90;;;;;;4994284;28;20046;-68
2021/12/29 08:27:00;;;;;;;83.13;20.15;;;7.50;99.90;;;;;;5012563;28;20377;-68
2021/12/29 08:29:26;;;;;;;86.45;20.77;;;7.50;99.90;;;;;;5014716;28;20125;-68
2021/12/29 08:31:51;;;;;;;113.95;22.30;;;7.50;99.90;;;;;;5014930;28;20052;-69
2021/12/29 08:34:17;;;;;;;100.32;20.80;;;7.50;99.90;;;;;;5009574;28;20070;-69
2021/12/29 08:36:43;;;;;;;112.15;21.67;;;7.50;99.90;;;;;;5018810;28;20047;-68
2021/12/29 08:39:09;;;;;;;80.28;19.45;;;7.50;99.90;;;;;;5014967;28;20045;-69
2021/12/29 08:41:35;;;;;;;119.95;20.67;;;7.50;99.90;;;;;;4997049;28;20049;-66
2021/12/29 08:44:01;;;;;;;192.48;24.13;;;7.50;99.90;;;;;;4997586;28;20065;-70
2021/12/29 08:46:28;;;;;;;113.78;21.05;;;7.50;99.90;;;;;;5014005;28;20073;-70
2021/12/29 08:48:54;;;;;;;153.90;23.83;;;7.70;99.90;;;;;;4993683;28;20050;-71
2021/12/29 08:51:20;;;;;;;122.28;23.02;;;7.50;99.90;;;;;;5006763;28;20343;-70
2021/12/29 08:53:47;;;;;;;213.30;26.23;;;7.50;99.90;;;;;;4996729;28;20057;-70
2021/12/29 08:56:16;;;;;;;181.68;24.95;;;7.50;99.90;;;;;;4997409;28;20065;-70
2021/12/29 08:58:45;;;;;;;278.05;28.17;;;7.50;99.90;;;;;;4996849;28;20050;-70
2021/12/29 09:01:11;;;;;;;98.38;21.50;;;7.50;99.90;;;;;;5014934;28;20049;-70
2021/12/29 09:03:37;;;;;;;161.63;24.73;;;7.50;99.90;;;;;;4997721;28;20054;-70
2021/12/29 09:06:03;;;;;;;319.00;29.02;;;7.60;99.90;;;;;;4996696;28;20096;-71
2021/12/29 09:08:29;;;;;;;154.05;24.05;;;7.50;99.90;;;;;;4994134;28;20046;-72
2021/12/29 09:10:55;;;;;;;102.90;21.88;;;7.60;99.90;;;;;;5011096;28;20063;-71
2021/12/29 09:13:20;;;;;;;159.45;23.55;;;7.60;99.90;;;;;;5014433;28;20133;-72
2021/12/29 09:15:46;;;;;;;130.13;22.77;;;7.60;99.90;;;;;;5015871;28;20050;-71
2021/12/29 09:18:12;;;;;;;181.77;24.45;;;7.60;99.90;;;;;;5001524;28;20058;-70
2021/12/29 09:20:44;;;;;;;177.20;23.73;;;7.60;99.90;;;;;;5017965;28;20057;-71
2021/12/29 09:23:13;;;;;;;133.85;22.75;;;7.60;99.90;;;;;;4990898;28;20480;-71
2021/12/29 09:25:41;;;;;;;142.80;21.80;;;7.70;99.90;;;;;;5034415;28;20487;-72
2021/12/29 09:28:08;;;;;;;136.48;21.00;;;7.70;99.90;;;;;;4996592;28;20050;-72
2021/12/29 09:30:36;;;;;;;148.32;22.33;;;7.70;99.90;;;;;;5000168;28;20469;-70
2021/12/29 09:33:02;;;;;;;84.88;19.08;;;7.70;99.90;;;;;;5017773;28;20088;-71
2021/12/29 09:35:28;;;;;;;99.18;19.23;;;7.80;99.90;;;;;;5000463;28;20129;-73
2021/12/29 09:37:54;;;;;;;124.93;20.90;;;7.80;99.90;;;;;;5017584;28;20058;-72
2021/12/29 09:40:21;;;;;;;126.05;20.55;;;7.80;99.90;;;;;;5034494;28;20461;-71
2021/12/29 09:42:49;;;;;;;105.10;19.52;;;7.80;99.90;;;;;;5020373;28;20085;-71
2021/12/29 09:45:14;;;;;;;165.32;20.80;;;7.80;99.90;;;;;;4993397;28;20054;-71
2021/12/29 09:47:40;;;;;;;188.80;22.00;;;7.80;99.90;;;;;;4995470;28;20056;-71
2021/12/29 09:50:13;;;;;;;226.98;24.50;;;7.90;99.90;;;;;;5000322;28;20082;-72
2021/12/29 09:52:39;;;;;;;195.02;23.85;;;7.90;99.90;;;;;;5017094;28;20111;-71
2021/12/29 09:55:09;;;;;;;270.17;26.27;;;7.90;99.90;;;;;;4999800;28;20457;-71
2021/12/29 09:57:37;;;;;;;367.15;31.25;;;7.90;99.90;;;;;;5017412;28;20167;-71
2021/12/29 10:00:08;;;;;;;265.50;26.45;;;8.00;99.90;;;;;;5016821;28;20045;-70
2021/12/29 10:02:34;;;;;;;260.75;26.50;;;7.90;99.90;;;;;;5017161;28;20045;-72
2021/12/29 10:05:03;;;;;;;138.68;21.02;;;7.90;99.90;;;;;;5017200;28;20052;-72
2021/12/29 10:07:29;;;;;;;189.93;22.73;;;8.00;99.90;;;;;;4999573;28;20046;-71
2021/12/29 10:09:54;;;;;;;179.48;22.33;;;8.00;99.90;;;;;;5016960;28;20049;-71
2021/12/29 10:12:22;;;;;;;77.43;17.23;;;8.00;99.90;;;;;;4997190;28;20148;-70
2021/12/29 10:14:54;;;;;;;166.70;21.13;;;8.00;99.90;;;;;;5007951;28;20046;-71
2021/12/29 10:17:28;;;;;;;266.37;24.50;;;8.10;99.90;;;;;;5005135;28;20133;-69
2021/12/29 10:20:12;;;;;;;89.55;18.30;;;8.10;99.90;;;;;;4999363;28;20099;-70
2021/12/29 10:22:42;;;;;;;101.22;18.48;;;8.10;99.90;;;;;;4999772;28;20058;-69
2021/12/29 10:25:17;;;;;;;59.60;16.10;;;8.10;99.90;;;;;;4999483;28;20081;-69
2021/12/29 10:27:43;;;;;;;91.25;17.80;;;8.20;99.90;;;;;;5000185;28;20060;-73
2021/12/29 10:30:26;;;;;;;94.70;17.55;;;8.20;99.90;;;;;;5017138;28;20045;-71
2021/12/29 10:32:55;;;;;;;62.80;15.30;;;8.20;99.90;;;;;;5015935;28;20045;-71
2021/12/29 10:35:32;;;;;;;42.85;13.77;;;8.30;99.90;;;;;;4993819;28;20068;-70
2021/12/29 10:38:22;;;;;;;46.15;13.68;;;8.30;99.90;;;;;;5016578;28;20113;-72
2021/12/29 10:40:49;;;;;;;43.65;13.02;;;8.40;99.90;;;;;;5011005;28;20081;-71
2021/12/29 10:43:15;;;;;;;34.58;12.50;;;8.40;99.90;;;;;;4998699;28;20092;-70
2021/12/29 10:45:46;;;;;;;42.03;12.45;;;8.40;99.90;;;;;;4998870;28;20068;-69
2021/12/29 10:48:29;;;;;;;40.83;13.55;;;8.40;99.90;;;;;;5016370;28;20042;-70
2021/12/29 10:51:07;;;;;;;40.50;12.10;;;8.40;99.90;;;;;;5015993;28;20099;-69
2021/12/29 10:53:35;;;;;;;30.17;11.38;;;8.40;99.90;;;;;;5015965;28;20046;-69
2021/12/29 10:56:02;;;;;;;28.85;11.90;;;8.40;99.90;;;;;;5015871;28;20065;-69
2021/12/29 10:58:30;;;;;;;29.88;11.95;;;8.40;99.90;;;;;;5015485;28;20115;-69
2021/12/29 11:00:58;;;;;;;34.88;12.20;;;8.40;99.90;;;;;;5020375;28;20504;-68
2021/12/29 11:03:24;;;;;;;32.65;11.85;;;8.40;99.90;;;;;;5001643;28;20053;-68
2021/12/29 11:05:58;;;;;;;32.60;12.27;;;8.40;99.90;;;;;;5015649;28;20048;-70
2021/12/29 11:08:26;;;;;;;30.55;12.55;;;8.40;99.90;;;;;;5015107;28;20068;-69
2021/12/29 11:10:56;;;;;;;30.85;12.88;;;8.40;99.90;;;;;;5016187;28;20385;-69
2021/12/29 11:13:27;;;;;;;36.83;12.57;;;8.30;99.90;;;;;;5015958;28;20068;-71
2021/12/29 11:15:54;;;;;;;30.15;11.80;;;8.30;99.90;;;;;;5016133;28;20132;-69
2021/12/29 11:18:20;;;;;;;29.60;11.68;;;8.30;99.90;;;;;;5015554;28;20129;-70
2021/12/29 11:20:52;;;;;;;36.33;12.48;;;8.30;99.90;;;;;;5015286;28;20065;-69
2021/12/29 11:23:20;;;;;;;30.75;12.15;;;8.40;99.90;;;;;;5015625;28;20378;-67
2021/12/29 11:25:46;;;;;;;36.08;12.40;;;8.30;99.90;;;;;;4997900;28;20038;-68
2021/12/29 11:28:23;;;;;;;29.85;12.80;;;8.30;99.90;;;;;;5015722;28;20055;-68
2021/12/29 11:30:49;;;;;;;37.30;12.20;;;8.30;99.90;;;;;;5013777;28;20089;-68
2021/12/29 11:33:15;;;;;;;31.65;12.25;;;8.30;99.90;;;;;;5035278;28;20449;-69
2021/12/29 11:35:44;;;;;;;40.90;12.48;;;8.30;99.90;;;;;;5015396;28;20047;-68
2021/12/29 11:38:10;;;;;;;48.08;12.90;;;8.30;99.90;;;;;;5014521;28;20399;-69
2021/12/29 11:40:40;;;;;;;37.28;13.50;;;8.40;99.90;;;;;;4998389;28;20045;-68
2021/12/29 11:43:07;;;;;;;47.72;13.45;;;8.30;99.90;;;;;;5013986;28;20088;-70
2021/12/29 11:45:34;;;;;;;39.88;12.48;;;8.30;99.90;;;;;;5008418;28;20050;-69
2021/12/29 11:48:01;;;;;;;39.63;12.57;;;8.30;99.90;;;;;;5001810;28;20049;-69
2021/12/29 11:50:30;;;;;;;40.33;12.55;;;8.30;99.90;;;;;;4997487;28;20050;-69
2021/12/29 11:53:06;;;;;;;49.20;12.43;;;8.40;99.90;;;;;;5013399;28;20057;-69
2021/12/29 11:55:35;;;;;;;34.30;12.13;;;8.40;99.90;;;;;;5014798;28;20038;-69
2021/12/29 11:58:24;;;;;;;42.17;12.82;;;8.40;99.90;;;;;;5014913;28;20042;-70
2021/12/29 12:01:14;;;;;;;37.55;13.07;;;8.50;99.90;;;;;;5014944;28;20104;-68
2021/12/29 12:03:54;;;;;;;42.42;12.23;;;8.60;99.90;;;;;;5011215;28;20034;-67
2021/12/29 12:06:22;;;;;;;34.65;12.25;;;8.60;99.90;;;;;;5034461;28;20104;-71
2021/12/29 12:08:48;;;;;;;46.03;13.98;;;8.60;99.90;;;;;;5034468;28;20488;-70
2021/12/29 12:11:29;;;;;;;35.70;12.05;;;8.70;99.90;;;;;;4996398;28;20041;-69
2021/12/29 12:13:55;;;;;;;34.35;11.68;;;8.70;99.90;;;;;;5012033;28;20076;-70
2021/12/29 12:16:22;;;;;;;45.33;13.23;;;8.70;99.90;;;;;;5009784;28;20046;-68
2021/12/29 12:18:56;;;;;;;32.80;11.57;;;8.70;99.90;;;;;;5003770;28;20057;-70
2021/12/29 12:21:28;;;;;;;36.38;11.30;;;8.80;99.90;;;;;;4986424;28;20161;-69
2021/12/29 12:23:55;;;;;;;30.45;11.23;;;8.80;99.90;;;;;;4994548;28;20058;-69
2021/12/29 12:26:22;;;;;;;36.95;12.68;;;8.80;99.90;;;;;;4992025;28;20049;-70
2021/12/29 12:28:51;;;;;;;31.23;12.00;;;8.80;99.90;;;;;;4991480;28;20129;-70
2021/12/29 12:31:24;;;;;;;40.22;11.93;;;8.80;99.90;;;;;;5010133;28;20078;-68
2021/12/29 12:33:51;;;;;;;33.42;10.02;;;8.80;99.90;;;;;;5014333;28;20061;-69
2021/12/29 12:36:17;;;;;;;30.95;10.18;;;8.70;99.90;;;;;;5000285;28;20100;-67
2021/12/29 12:38:43;;;;;;;31.13;10.48;;;8.70;99.90;;;;;;5014218;28;20354;-68